Time;durP1;ratioP1;P1;durP2;ratioP2;P2;SDS_P1;SDS_P2;PMS_P1;PMS_P2;Temp;Humidity;BMP_temperature;BMP_pressure;BME280_temperature;BME280_humidity;BME280_pressure;Samples;Min_cycle;Max_cycle;Signal;HPM_P1;HPM_P2
2021/11/27 00:00:55;;;;;;;12.90;7.80;;;3.10;99.90;;;;;;5012001;28;20454;-73
2021/11/27 00:03:22;;;;;;;9.07;7.47;;;3.10;99.90;;;;;;5019100;28;20433;-73
2021/11/27 00:05:49;;;;;;;9.73;7.30;;;3.10;99.90;;;;;;5022661;28;20504;-73
2021/11/27 00:08:16;;;;;;;8.70;7.43;;;3.10;99.90;;;;;;5015368;28;20453;-73
2021/11/27 00:10:47;;;;;;;11.47;7.63;;;3.10;99.90;;;;;;5017644;28;20533;-73
2021/11/27 00:13:13;;;;;;;10.80;8.73;;;3.10;99.90;;;;;;5018487;28;20434;-73
2021/11/27 00:15:41;;;;;;;10.53;7.70;;;3.10;99.90;;;;;;5017694;28;20434;-73
2021/11/27 00:18:08;;;;;;;8.80;7.30;;;3.10;99.90;;;;;;5016358;28;20542;-73
2021/11/27 00:21:02;;;;;;;9.03;8.00;;;3.10;99.90;;;;;;5020030;28;20462;-73
2021/11/27 00:23:30;;;;;;;8.70;7.40;;;3.20;99.90;;;;;;5016110;28;20527;-73
2021/11/27 00:25:57;;;;;;;12.10;8.00;;;3.10;99.90;;;;;;5017933;28;20425;-73
2021/11/27 00:28:24;;;;;;;8.93;8.00;;;3.20;99.90;;;;;;5018219;28;20426;-73
2021/11/27 00:30:51;;;;;;;9.60;8.03;;;3.20;99.90;;;;;;5011675;28;20469;-73
2021/11/27 00:33:18;;;;;;;11.80;8.00;;;3.20;99.90;;;;;;5019346;28;20913;-73
2021/11/27 00:35:43;;;;;;;10.33;7.87;;;3.20;99.90;;;;;;5017995;28;20754;-73
2021/11/27 00:38:09;;;;;;;10.80;7.63;;;3.20;99.90;;;;;;5019365;28;20472;-73
2021/11/27 00:40:39;;;;;;;10.53;7.50;;;3.20;99.90;;;;;;5013990;28;20336;-73
2021/11/27 00:43:07;;;;;;;13.97;9.20;;;3.20;99.90;;;;;;5018547;28;20437;-73
2021/11/27 00:45:33;;;;;;;7.63;6.87;;;3.20;99.90;;;;;;5016471;28;20430;-73
2021/11/27 00:48:00;;;;;;;10.47;8.37;;;3.20;99.90;;;;;;5018306;28;20488;-73
2021/11/27 00:50:32;;;;;;;11.00;9.27;;;3.20;99.90;;;;;;5015755;28;20905;-73
2021/11/27 00:53:00;;;;;;;11.10;8.50;;;3.10;99.90;;;;;;5016334;28;20910;-74
2021/11/27 00:55:26;;;;;;;13.77;9.47;;;3.10;99.90;;;;;;5016625;28;20530;-73
2021/11/27 00:57:52;;;;;;;12.27;8.80;;;3.10;99.90;;;;;;5018199;28;20935;-73
2021/11/27 01:00:24;;;;;;;11.60;7.80;;;3.20;99.90;;;;;;5016684;28;20436;-73
2021/11/27 01:02:50;;;;;;;9.40;8.00;;;3.20;99.90;;;;;;5018510;28;20440;-73
2021/11/27 01:05:17;;;;;;;11.07;8.53;;;3.20;99.90;;;;;;5017593;28;20749;-73
2021/11/27 01:07:43;;;;;;;12.63;9.00;;;3.10;99.90;;;;;;5016101;28;20432;-73
2021/11/27 01:10:14;;;;;;;9.77;7.97;;;3.10;99.90;;;;;;5013345;28;20445;-74
2021/11/27 01:12:40;;;;;;;9.13;7.80;;;3.10;99.90;;;;;;5018965;28;20465;-73
2021/11/27 01:15:07;;;;;;;10.40;8.30;;;3.10;99.90;;;;;;5016845;28;20492;-74
2021/11/27 01:17:33;;;;;;;9.63;8.07;;;3.10;99.90;;;;;;5020500;28;20678;-73
2021/11/27 01:20:00;;;;;;;10.57;7.93;;;3.10;99.90;;;;;;5008800;28;20527;-73
2021/11/27 01:22:26;;;;;;;13.23;8.43;;;3.20;99.90;;;;;;5022292;28;20409;-73
2021/11/27 01:24:51;;;;;;;12.03;8.43;;;3.20;99.90;;;;;;5013415;28;20425;-73
2021/11/27 01:27:17;;;;;;;13.00;8.80;;;3.20;99.90;;;;;;5018485;28;20439;-73
2021/11/27 01:29:43;;;;;;;11.10;8.20;;;3.30;99.90;;;;;;5016329;28;20183;-73
2021/11/27 01:32:12;;;;;;;11.33;8.80;;;3.20;99.90;;;;;;5019298;28;20445;-73
2021/11/27 01:34:40;;;;;;;9.53;8.37;;;3.20;99.90;;;;;;5015779;28;20470;-73
2021/11/27 01:37:06;;;;;;;12.93;8.20;;;3.20;99.90;;;;;;5021468;28;20488;-73
2021/11/27 01:39:32;;;;;;;15.80;9.40;;;3.20;99.90;;;;;;5016940;28;20852;-73
2021/11/27 01:41:59;;;;;;;11.60;8.83;;;3.20;99.90;;;;;;5019550;28;20552;-74
2021/11/27 01:44:25;;;;;;;11.60;8.97;;;3.20;99.90;;;;;;5016904;28;20770;-73
2021/11/27 01:46:52;;;;;;;12.00;8.90;;;3.20;99.90;;;;;;5014718;28;20595;-73
2021/11/27 01:49:18;;;;;;;11.70;8.20;;;3.30;99.90;;;;;;5016088;28;20436;-73
2021/11/27 01:51:44;;;;;;;11.00;8.33;;;3.30;99.90;;;;;;5018057;28;20524;-73
2021/11/27 01:54:12;;;;;;;9.90;8.03;;;3.20;99.90;;;;;;5016339;28;20441;-74
2021/11/27 01:56:43;;;;;;;11.93;8.40;;;3.20;99.90;;;;;;5017447;28;20226;-74
2021/11/27 01:59:09;;;;;;;14.23;9.00;;;3.30;99.90;;;;;;5013472;28;20465;-74
2021/11/27 02:01:36;;;;;;;12.83;8.90;;;3.20;99.90;;;;;;5016548;28;20493;-74
2021/11/27 02:04:04;;;;;;;10.43;8.80;;;3.20;99.90;;;;;;5014410;28;20436;-74
2021/11/27 02:06:32;;;;;;;13.27;9.07;;;3.20;99.90;;;;;;5017651;28;20420;-74
2021/11/27 02:08:59;;;;;;;10.83;7.90;;;3.20;99.90;;;;;;5014112;28;20430;-74
2021/11/27 02:11:30;;;;;;;11.03;7.97;;;3.20;99.90;;;;;;5020487;28;20516;-74
2021/11/27 02:13:58;;;;;;;14.23;8.83;;;3.20;99.90;;;;;;5021001;28;20483;-74
2021/11/27 02:16:24;;;;;;;16.23;9.63;;;3.20;99.90;;;;;;5022038;28;20444;-74
2021/11/27 02:18:50;;;;;;;12.43;8.70;;;3.20;99.90;;;;;;5016408;28;20455;-73
2021/11/27 02:21:19;;;;;;;12.30;9.20;;;3.20;99.90;;;;;;5018538;28;20459;-74
2021/11/27 02:23:46;;;;;;;17.90;10.97;;;3.20;99.90;;;;;;5020447;28;20171;-74
2021/11/27 02:26:16;;;;;;;14.83;8.70;;;3.20;99.90;;;;;;5021726;28;20427;-74
2021/11/27 02:28:53;;;;;;;12.73;9.10;;;3.20;99.90;;;;;;5019210;28;20904;-74
2021/11/27 02:31:20;;;;;;;10.83;8.20;;;3.30;99.90;;;;;;5023381;28;20807;-74
2021/11/27 02:33:46;;;;;;;13.57;9.53;;;3.30;99.90;;;;;;5020051;28;20838;-74
2021/11/27 02:36:12;;;;;;;15.00;9.30;;;3.30;99.90;;;;;;5024590;28;20425;-74
2021/11/27 02:38:39;;;;;;;14.53;10.30;;;3.30;99.90;;;;;;5021170;28;20209;-74
2021/11/27 02:41:05;;;;;;;12.33;9.40;;;3.30;99.90;;;;;;5018064;28;20931;-74
2021/11/27 02:43:31;;;;;;;18.03;11.67;;;3.30;99.90;;;;;;5022268;28;20435;-74
2021/11/27 02:45:57;;;;;;;10.93;8.47;;;3.30;99.90;;;;;;5019312;28;20444;-74
2021/11/27 02:48:23;;;;;;;15.40;10.47;;;3.30;99.90;;;;;;5019071;28;20425;-74
2021/11/27 02:50:48;;;;;;;18.77;11.60;;;3.40;99.90;;;;;;5017698;28;20455;-73
2021/11/27 02:53:16;;;;;;;14.13;10.57;;;3.30;99.90;;;;;;5019620;28;20516;-73
2021/11/27 02:55:43;;;;;;;18.20;10.53;;;3.30;99.90;;;;;;5020135;28;20185;-73
2021/11/27 02:58:09;;;;;;;13.97;9.90;;;3.30;99.90;;;;;;5018215;28;20767;-73
2021/11/27 03:00:35;;;;;;;16.77;10.20;;;3.30;99.90;;;;;;5017807;28;20983;-74
2021/11/27 03:03:00;;;;;;;18.53;10.50;;;3.30;99.90;;;;;;5021827;28;20430;-74
2021/11/27 03:05:26;;;;;;;12.07;9.33;;;3.20;99.90;;;;;;5019627;28;20947;-74
2021/11/27 03:07:52;;;;;;;14.40;10.37;;;3.20;99.90;;;;;;5022445;28;20203;-74
2021/11/27 03:10:19;;;;;;;16.60;9.40;;;3.30;99.90;;;;;;5018955;28;20672;-74
2021/11/27 03:12:46;;;;;;;14.73;9.70;;;3.30;99.90;;;;;;5023644;28;20179;-74
2021/11/27 03:15:14;;;;;;;16.87;10.83;;;3.20;99.90;;;;;;5017250;28;20504;-73
2021/11/27 03:17:41;;;;;;;13.83;9.73;;;3.20;99.90;;;;;;5015874;28;20934;-74
2021/11/27 03:20:08;;;;;;;12.53;10.57;;;3.20;99.90;;;;;;5017264;28;21145;-74
2021/11/27 03:22:34;;;;;;;15.23;10.47;;;3.30;99.90;;;;;;5019414;28;20517;-74
2021/11/27 03:25:00;;;;;;;12.67;8.90;;;3.30;99.90;;;;;;5017964;28;20492;-73
2021/11/27 03:27:26;;;;;;;17.30;9.40;;;3.20;99.90;;;;;;5020087;28;20927;-73
2021/11/27 03:29:52;;;;;;;15.87;10.03;;;3.30;99.90;;;;;;5013737;28;20459;-66
2021/11/27 03:32:19;;;;;;;15.30;9.93;;;3.30;99.90;;;;;;5018737;28;20442;-66
2021/11/27 03:34:48;;;;;;;15.70;9.87;;;3.30;99.90;;;;;;5023383;28;20450;-66
2021/11/27 03:37:15;;;;;;;17.80;10.80;;;3.20;99.90;;;;;;5019324;28;20443;-66
2021/11/27 03:39:41;;;;;;;14.07;9.97;;;3.40;99.90;;;;;;5016762;28;21054;-66
2021/11/27 03:42:11;;;;;;;17.57;10.50;;;3.30;99.90;;;;;;5020870;28;20841;-67
2021/11/27 03:44:38;;;;;;;16.13;10.33;;;3.30;99.90;;;;;;5020224;28;20431;-66
2021/11/27 03:47:05;;;;;;;15.13;11.60;;;3.30;99.90;;;;;;5018759;28;20743;-66
2021/11/27 03:49:31;;;;;;;17.40;11.27;;;3.30;99.90;;;;;;5014758;28;20435;-66
2021/11/27 03:51:59;;;;;;;19.03;11.03;;;3.20;99.90;;;;;;5021782;28;20442;-66
2021/11/27 03:54:25;;;;;;;16.83;11.10;;;3.20;99.90;;;;;;5005942;28;20449;-66
2021/11/27 03:56:53;;;;;;;15.73;10.73;;;3.10;99.90;;;;;;5020927;28;20833;-66
2021/11/27 03:59:20;;;;;;;15.07;9.90;;;3.10;99.90;;;;;;5011590;28;20466;-66
2021/11/27 04:01:46;;;;;;;13.60;11.03;;;3.10;99.90;;;;;;5020249;28;20444;-66
2021/11/27 04:04:12;;;;;;;15.83;10.53;;;3.10;99.90;;;;;;5020058;28;20456;-66
2021/11/27 04:06:39;;;;;;;17.13;10.97;;;3.10;99.90;;;;;;5020980;28;20901;-67
2021/11/27 04:09:07;;;;;;;18.77;11.57;;;3.10;99.90;;;;;;5016308;28;20520;-66
2021/11/27 04:11:34;;;;;;;18.20;10.50;;;3.20;99.90;;;;;;5017345;28;20464;-66
2021/11/27 04:14:00;;;;;;;14.37;9.33;;;3.10;99.90;;;;;;5018826;28;20430;-66
2021/11/27 04:16:25;;;;;;;16.83;10.33;;;3.10;99.90;;;;;;5017304;28;20434;-66
2021/11/27 04:18:51;;;;;;;16.53;10.43;;;3.10;99.90;;;;;;5018965;28;20208;-66
2021/11/27 04:21:19;;;;;;;16.00;11.03;;;3.10;99.90;;;;;;5022823;28;20439;-66
2021/11/27 04:23:46;;;;;;;18.67;11.40;;;3.10;99.90;;;;;;5019195;28;20430;-67
2021/11/27 04:26:12;;;;;;;17.87;11.70;;;3.10;99.90;;;;;;5018654;28;20441;-67
2021/11/27 04:28:39;;;;;;;14.57;10.50;;;3.10;99.90;;;;;;5018957;28;20436;-67
2021/11/27 04:31:05;;;;;;;19.97;12.83;;;3.00;99.90;;;;;;5018747;28;20439;-66
2021/11/27 04:33:32;;;;;;;24.20;11.70;;;3.10;99.90;;;;;;5020180;28;20434;-66
2021/11/27 04:35:58;;;;;;;15.93;10.93;;;3.00;99.90;;;;;;5018472;28;20216;-66
2021/11/27 04:38:24;;;;;;;17.37;10.37;;;3.10;99.90;;;;;;5017937;28;20486;-66
2021/11/27 04:40:51;;;;;;;17.40;11.07;;;3.10;99.90;;;;;;5016217;28;20460;-66
2021/11/27 04:43:18;;;;;;;17.13;10.80;;;3.10;99.90;;;;;;5017961;28;20442;-67
2021/11/27 04:45:44;;;;;;;13.97;10.60;;;3.20;99.90;;;;;;5016088;28;20450;-68
2021/11/27 04:48:11;;;;;;;15.47;10.97;;;3.20;99.90;;;;;;5022638;28;20493;-68
2021/11/27 04:50:39;;;;;;;19.87;12.40;;;3.20;99.90;;;;;;5013152;28;20748;-68
2021/11/27 04:53:05;;;;;;;22.57;13.07;;;3.20;99.90;;;;;;5018522;28;20510;-68
2021/11/27 04:55:32;;;;;;;19.97;12.20;;;3.20;99.90;;;;;;5018474;28;20431;-68
2021/11/27 04:57:58;;;;;;;17.30;12.27;;;3.20;99.90;;;;;;5018336;28;20812;-68
2021/11/27 05:00:28;;;;;;;19.23;11.80;;;3.20;99.90;;;;;;5012529;28;20442;-68
2021/11/27 05:02:54;;;;;;;19.40;13.00;;;3.20;99.90;;;;;;5021292;28;20483;-68
2021/11/27 05:05:20;;;;;;;22.40;12.80;;;3.10;99.90;;;;;;5020339;28;20441;-68
2021/11/27 05:07:46;;;;;;;19.50;11.17;;;3.20;99.90;;;;;;5020342;28;20438;-67
2021/11/27 05:10:12;;;;;;;21.90;13.73;;;3.20;99.90;;;;;;5018873;28;20248;-68
2021/11/27 05:12:39;;;;;;;26.10;12.97;;;3.10;99.90;;;;;;5020430;28;20434;-67
2021/11/27 05:15:06;;;;;;;20.77;13.53;;;3.20;99.90;;;;;;5013896;28;20890;-69
2021/11/27 05:17:32;;;;;;;18.63;11.70;;;3.20;99.90;;;;;;5012395;28;20449;-68
2021/11/27 05:19:58;;;;;;;23.13;12.30;;;3.10;99.90;;;;;;5008427;28;20776;-67
2021/11/27 05:22:24;;;;;;;16.83;12.03;;;3.20;99.90;;;;;;5014308;28;20492;-68
2021/11/27 05:24:50;;;;;;;17.90;12.67;;;3.20;99.90;;;;;;5018372;28;20454;-68
2021/11/27 05:27:18;;;;;;;22.57;13.33;;;3.10;99.90;;;;;;5019490;28;20431;-68
2021/11/27 05:29:45;;;;;;;21.43;13.40;;;3.10;99.90;;;;;;5011250;28;20444;-74
2021/11/27 05:35:08;;;;;;;23.97;13.43;;;3.00;99.90;;;;;;5005078;28;20482;-74
2021/11/27 05:37:34;;;;;;;21.37;13.03;;;3.10;99.90;;;;;;5014521;28;20442;-74
2021/11/27 05:40:02;;;;;;;21.07;14.00;;;3.10;99.90;;;;;;5015275;28;22434;-74
2021/11/27 05:42:28;;;;;;;23.27;15.27;;;3.10;99.90;;;;;;5016145;28;20785;-74
2021/11/27 05:44:55;;;;;;;22.60;14.17;;;3.00;99.90;;;;;;5017776;28;20530;-74
2021/11/27 05:47:21;;;;;;;23.43;13.43;;;3.00;99.90;;;;;;5017730;28;20438;-74
2021/11/27 05:49:48;;;;;;;22.37;13.30;;;3.00;99.90;;;;;;5021209;28;20900;-74
2021/11/27 05:52:15;;;;;;;24.70;13.63;;;3.10;99.90;;;;;;5021100;28;20450;-74
2021/11/27 05:54:41;;;;;;;21.37;12.57;;;3.10;99.90;;;;;;5018423;28;20990;-74
2021/11/27 05:57:07;;;;;;;22.20;12.80;;;3.10;99.90;;;;;;5023372;28;20469;-74
2021/11/27 05:59:32;;;;;;;22.10;12.80;;;3.10;99.90;;;;;;5018042;28;20209;-74
2021/11/27 06:01:58;;;;;;;19.97;13.90;;;3.10;99.90;;;;;;5020539;28;20442;-74
2021/11/27 06:04:24;;;;;;;23.97;14.60;;;3.20;99.90;;;;;;5020775;28;20187;-75
2021/11/27 06:06:50;;;;;;;24.43;14.60;;;3.20;99.90;;;;;;5022515;28;20182;-74
2021/11/27 06:09:16;;;;;;;21.23;14.23;;;3.20;99.90;;;;;;5015060;28;20469;-74
2021/11/27 06:11:42;;;;;;;24.13;13.33;;;3.20;99.90;;;;;;5024301;28;20452;-74
2021/11/27 06:14:08;;;;;;;24.23;15.53;;;3.20;99.90;;;;;;5019576;28;20508;-74
2021/11/27 06:16:34;;;;;;;20.90;14.90;;;3.10;99.90;;;;;;5019516;28;20441;-74
2021/11/27 06:19:00;;;;;;;20.17;13.60;;;3.20;99.90;;;;;;5020271;28;20467;-75
2021/11/27 06:21:25;;;;;;;22.57;13.60;;;3.20;99.90;;;;;;5023067;28;20265;-74
2021/11/27 06:23:55;;;;;;;19.50;13.07;;;3.10;99.90;;;;;;5018662;28;20187;-74
2021/11/27 06:26:21;;;;;;;23.07;14.80;;;3.10;99.90;;;;;;5020388;28;20834;-74
2021/11/27 06:28:48;;;;;;;23.17;14.40;;;3.00;99.90;;;;;;5016686;28;20439;-74
2021/11/27 06:31:14;;;;;;;23.03;14.50;;;3.00;99.90;;;;;;5017321;28;20445;-75
2021/11/27 06:33:40;;;;;;;23.53;14.40;;;3.00;99.90;;;;;;5014758;28;20445;-75
2021/11/27 06:36:13;;;;;;;24.10;15.20;;;3.00;99.90;;;;;;5020980;28;20459;-74
2021/11/27 06:38:39;;;;;;;22.40;14.73;;;3.00;99.90;;;;;;5018403;28;21075;-74
2021/11/27 06:41:05;;;;;;;24.07;14.73;;;3.10;99.90;;;;;;5015962;28;20189;-75
2021/11/27 06:43:31;;;;;;;22.47;13.60;;;3.10;99.90;;;;;;5021013;28;20216;-75
2021/11/27 06:45:58;;;;;;;20.20;13.33;;;3.10;99.90;;;;;;5019199;28;20669;-76
2021/11/27 06:48:24;;;;;;;26.90;15.90;;;3.10;99.90;;;;;;5013895;28;20430;-76
2021/11/27 06:50:50;;;;;;;27.63;16.47;;;3.20;99.90;;;;;;5012271;28;20482;-75
2021/11/27 06:53:15;;;;;;;28.87;14.87;;;3.20;99.90;;;;;;5020205;28;20190;-75
2021/11/27 06:55:41;;;;;;;23.37;13.87;;;3.10;99.90;;;;;;5022887;28;20189;-75
2021/11/27 06:58:07;;;;;;;24.70;14.90;;;3.10;99.90;;;;;;5021541;28;20188;-75
2021/11/27 07:00:33;;;;;;;23.53;15.60;;;3.10;99.90;;;;;;5018573;28;20183;-75
2021/11/27 07:02:59;;;;;;;25.43;15.70;;;3.20;99.90;;;;;;5022515;28;20198;-75
2021/11/27 07:05:24;;;;;;;21.60;14.17;;;3.20;99.90;;;;;;5020969;28;20489;-75
2021/11/27 07:07:50;;;;;;;21.20;14.63;;;3.10;99.90;;;;;;5021599;28;20528;-76
2021/11/27 07:10:16;;;;;;;24.10;15.30;;;3.10;99.90;;;;;;5022220;28;20194;-76
2021/11/27 07:12:42;;;;;;;23.13;13.27;;;3.10;99.90;;;;;;5018511;28;20191;-77
2021/11/27 07:15:09;;;;;;;26.67;15.70;;;3.20;99.90;;;;;;5020628;28;21056;-76
2021/11/27 07:17:35;;;;;;;24.80;14.53;;;3.20;99.90;;;;;;5020885;28;20434;-76
2021/11/27 07:20:03;;;;;;;21.40;15.37;;;3.20;99.90;;;;;;5017370;28;20966;-77
2021/11/27 07:22:29;;;;;;;19.40;13.43;;;3.20;99.90;;;;;;5016285;28;20267;-75
2021/11/27 07:24:55;;;;;;;24.63;15.20;;;3.10;99.90;;;;;;5023186;28;20520;-75
2021/11/27 07:27:21;;;;;;;25.27;13.83;;;3.10;99.90;;;;;;5020061;28;20538;-75
2021/11/27 07:29:47;;;;;;;20.67;14.70;;;3.10;99.90;;;;;;5018046;28;20988;-76
2021/11/27 07:32:13;;;;;;;22.27;13.13;;;3.20;99.90;;;;;;5020430;28;20197;-75
2021/11/27 07:34:39;;;;;;;18.63;12.40;;;3.20;99.90;;;;;;5017509;28;20435;-75
2021/11/27 07:37:05;;;;;;;23.17;14.90;;;3.20;99.90;;;;;;5020707;28;20261;-74
2021/11/27 07:39:31;;;;;;;26.33;15.43;;;3.20;99.90;;;;;;5015700;28;20255;-74
2021/11/27 07:41:56;;;;;;;21.80;14.17;;;3.20;99.90;;;;;;5020568;28;20889;-74
2021/11/27 07:44:23;;;;;;;21.60;15.27;;;3.20;99.90;;;;;;5023386;28;20446;-74
2021/11/27 07:46:53;;;;;;;23.50;15.00;;;3.30;99.90;;;;;;5015819;28;20425;-75
2021/11/27 07:49:22;;;;;;;24.13;14.90;;;3.30;99.90;;;;;;5018967;28;20765;-75
2021/11/27 07:51:48;;;;;;;21.50;13.47;;;3.30;99.90;;;;;;5018288;28;20445;-74
2021/11/27 07:54:14;;;;;;;25.17;14.27;;;3.30;99.90;;;;;;5020707;28;21230;-75
2021/11/27 07:56:40;;;;;;;20.90;14.03;;;3.20;99.90;;;;;;5022152;28;20210;-75
2021/11/27 07:59:06;;;;;;;23.27;14.57;;;3.30;99.90;;;;;;5015772;28;20672;-75
2021/11/27 08:01:33;;;;;;;22.03;13.80;;;3.30;99.90;;;;;;5021129;28;20536;-75
2021/11/27 08:03:59;;;;;;;20.00;13.40;;;3.30;99.90;;;;;;5017353;28;20436;-75
2021/11/27 08:06:25;;;;;;;19.20;13.10;;;3.30;99.90;;;;;;5020565;28;20465;-75
2021/11/27 08:08:51;;;;;;;21.50;13.43;;;3.30;99.90;;;;;;5019588;28;20829;-75
2021/11/27 08:11:19;;;;;;;24.30;14.10;;;3.40;99.90;;;;;;5018447;28;20434;-74
2021/11/27 08:13:46;;;;;;;22.83;13.60;;;3.40;99.90;;;;;;5014880;28;20924;-75
2021/11/27 08:16:12;;;;;;;22.17;13.97;;;3.40;99.90;;;;;;5020206;28;20755;-75
2021/11/27 08:18:38;;;;;;;20.20;12.90;;;3.40;99.90;;;;;;5014294;28;20481;-76
2021/11/27 08:21:04;;;;;;;24.17;12.60;;;3.40;99.90;;;;;;5012025;28;20430;-75
2021/11/27 08:23:30;;;;;;;19.17;12.70;;;3.50;99.90;;;;;;5013703;28;20545;-75
2021/11/27 08:25:56;;;;;;;23.50;14.07;;;3.50;99.90;;;;;;5014994;28;20446;-74
2021/11/27 08:28:22;;;;;;;18.13;12.07;;;3.40;99.90;;;;;;5017880;28;20459;-75
2021/11/27 08:30:48;;;;;;;23.43;14.23;;;3.50;99.90;;;;;;5007006;28;20453;-75
2021/11/27 08:33:13;;;;;;;22.13;13.93;;;3.50;99.90;;;;;;5011244;28;20466;-75
2021/11/27 08:35:39;;;;;;;21.13;13.37;;;3.50;99.90;;;;;;5019739;28;20192;-75
2021/11/27 08:38:05;;;;;;;17.60;12.40;;;3.50;99.90;;;;;;5010247;28;20448;-75
2021/11/27 08:40:31;;;;;;;20.87;12.97;;;3.60;99.90;;;;;;5010790;28;20180;-76
2021/11/27 08:42:58;;;;;;;17.13;12.47;;;3.60;99.90;;;;;;5012444;28;20507;-75
2021/11/27 08:45:25;;;;;;;17.20;12.87;;;3.60;99.90;;;;;;5007409;28;20216;-75
2021/11/27 08:47:50;;;;;;;22.77;13.03;;;3.60;99.90;;;;;;5015349;28;20437;-75
2021/11/27 08:50:16;;;;;;;22.40;12.30;;;3.70;99.90;;;;;;5014461;28;20443;-75
2021/11/27 08:52:42;;;;;;;22.80;13.30;;;3.70;99.90;;;;;;5010924;28;20289;-75
2021/11/27 08:55:08;;;;;;;20.20;13.77;;;3.60;99.90;;;;;;5016412;28;20827;-75
2021/11/27 08:57:34;;;;;;;20.80;13.70;;;3.50;99.90;;;;;;5017461;28;20207;-75
2021/11/27 09:00:01;;;;;;;19.60;13.30;;;3.50;99.90;;;;;;5013131;28;20466;-75
2021/11/27 09:02:27;;;;;;;21.43;13.50;;;3.50;99.90;;;;;;5019132;28;20444;-75
2021/11/27 09:04:53;;;;;;;24.37;13.03;;;3.50;99.90;;;;;;5017300;28;20426;-75
2021/11/27 09:07:19;;;;;;;27.93;14.07;;;3.60;99.90;;;;;;5022252;28;20414;-75
2021/11/27 09:09:47;;;;;;;21.83;14.27;;;3.50;99.90;;;;;;5017944;28;20189;-75
2021/11/27 09:12:16;;;;;;;19.57;13.50;;;3.60;99.90;;;;;;5012981;28;20921;-75
2021/11/27 09:14:42;;;;;;;21.93;14.37;;;3.60;99.90;;;;;;5016495;28;20499;-74
2021/11/27 09:17:08;;;;;;;27.00;15.10;;;3.60;99.90;;;;;;5014926;28;20832;-75
2021/11/27 09:19:33;;;;;;;21.87;13.03;;;3.60;99.90;;;;;;5017840;28;20489;-75
2021/11/27 09:21:59;;;;;;;25.70;15.67;;;3.60;99.90;;;;;;5017010;28;20185;-75
2021/11/27 09:24:26;;;;;;;23.13;15.43;;;3.60;99.90;;;;;;5016185;28;20255;-74
2021/11/27 09:26:51;;;;;;;27.00;16.57;;;3.50;99.90;;;;;;5015099;28;20522;-74
2021/11/27 09:29:18;;;;;;;26.63;13.43;;;3.60;99.90;;;;;;5017685;28;20282;-75
2021/11/27 09:31:45;;;;;;;20.07;13.13;;;3.60;99.90;;;;;;5019793;28;20278;-75
2021/11/27 09:34:12;;;;;;;21.80;13.40;;;3.60;99.90;;;;;;5015885;28;20473;-75
2021/11/27 09:36:39;;;;;;;21.93;14.80;;;3.60;99.90;;;;;;5016959;28;20482;-75
2021/11/27 09:39:07;;;;;;;24.03;14.23;;;3.60;99.90;;;;;;5015609;28;20498;-75
2021/11/27 09:41:34;;;;;;;22.27;13.47;;;3.60;99.90;;;;;;5015918;28;20436;-75
2021/11/27 09:44:06;;;;;;;27.43;13.63;;;3.60;99.90;;;;;;5019751;28;20561;-75
2021/11/27 09:46:35;;;;;;;20.07;12.67;;;3.60;99.90;;;;;;5019986;28;20900;-74
2021/11/27 09:49:04;;;;;;;22.73;13.37;;;3.60;99.90;;;;;;5014598;28;20493;-74
2021/11/27 09:51:32;;;;;;;23.80;14.70;;;3.70;99.90;;;;;;5019684;28;20443;-74
2021/11/27 09:54:00;;;;;;;20.17;13.90;;;3.60;99.90;;;;;;5016648;28;20445;-74
2021/11/27 09:56:28;;;;;;;22.83;13.97;;;3.60;99.90;;;;;;5014925;28;20489;-74
2021/11/27 09:58:55;;;;;;;25.87;13.77;;;3.60;99.90;;;;;;5013839;28;20462;-75
2021/11/27 10:01:26;;;;;;;19.90;12.57;;;3.50;99.90;;;;;;5012039;28;20435;-75
2021/11/27 10:04:03;;;;;;;20.40;14.97;;;3.60;99.90;;;;;;5015541;28;20423;-74
2021/11/27 10:06:32;;;;;;;23.93;13.90;;;3.60;99.90;;;;;;5016794;28;20431;-75
2021/11/27 10:08:59;;;;;;;21.50;14.20;;;3.60;99.90;;;;;;5019310;28;20521;-75
2021/11/27 10:11:25;;;;;;;21.60;12.93;;;3.60;99.90;;;;;;5018787;28;20437;-75
2021/11/27 10:13:52;;;;;;;19.13;12.07;;;3.70;99.90;;;;;;5018060;28;20913;-75
2021/11/27 10:16:18;;;;;;;19.73;13.20;;;3.70;99.90;;;;;;5007680;28;20435;-75
2021/11/27 10:19:01;;;;;;;21.63;13.63;;;3.60;99.90;;;;;;4988208;28;21017;-76
2021/11/27 10:21:26;;;;;;;19.60;13.83;;;3.60;99.90;;;;;;5003717;28;20430;-75
2021/11/27 10:23:52;;;;;;;20.47;11.60;;;3.70;99.90;;;;;;5015409;28;20927;-75
2021/11/27 10:26:39;;;;;;;19.60;14.10;;;3.70;99.90;;;;;;5017368;28;20205;-75
2021/11/27 10:29:29;;;;;;;18.83;13.87;;;3.70;99.90;;;;;;5014379;28;20197;-76
2021/11/27 10:32:29;;;;;;;24.47;14.30;;;3.80;99.90;;;;;;5012056;28;20529;-75
2021/11/27 10:34:56;;;;;;;17.53;11.60;;;3.60;99.90;;;;;;5019672;28;20856;-76
2021/11/27 10:37:32;;;;;;;21.80;12.63;;;3.70;99.90;;;;;;5016701;28;20456;-75
2021/11/27 10:39:58;;;;;;;18.27;12.67;;;3.70;99.90;;;;;;5019875;28;20462;-76
2021/11/27 10:42:24;;;;;;;20.20;12.23;;;3.70;99.90;;;;;;5016455;28;20467;-76
2021/11/27 10:44:52;;;;;;;16.73;11.57;;;3.70;99.90;;;;;;5018298;28;20892;-76
2021/11/27 10:47:19;;;;;;;22.43;14.03;;;3.70;99.90;;;;;;5030027;28;20189;-76
2021/11/27 10:49:47;;;;;;;22.80;13.13;;;3.80;99.90;;;;;;5017515;28;20455;-77
2021/11/27 10:52:21;;;;;;;22.00;13.13;;;3.70;99.90;;;;;;5013283;28;20429;-76
2021/11/27 10:54:54;;;;;;;22.10;13.57;;;3.70;99.90;;;;;;5012478;28;20437;-76
2021/11/27 10:57:36;;;;;;;20.17;13.30;;;3.70;99.90;;;;;;5017699;28;20483;-76
2021/11/27 11:00:45;;;;;;;20.20;13.70;;;3.70;99.90;;;;;;5015708;28;20471;-77
2021/11/27 11:03:31;;;;;;;20.50;13.30;;;3.70;99.90;;;;;;5013773;28;20433;-76
2021/11/27 11:05:59;;;;;;;21.83;13.27;;;3.70;99.90;;;;;;5022273;28;20520;-76
2021/11/27 11:08:36;;;;;;;22.33;13.33;;;3.70;99.90;;;;;;5019593;28;20472;-76
2021/11/27 11:11:22;;;;;;;20.23;12.77;;;3.60;99.90;;;;;;5015797;28;20426;-76
2021/11/27 11:13:59;;;;;;;17.40;11.57;;;3.60;99.90;;;;;;5013845;28;20464;-76
2021/11/27 11:16:31;;;;;;;23.77;12.50;;;3.60;99.90;;;;;;5015742;28;20524;-77
2021/11/27 11:19:18;;;;;;;19.37;11.90;;;3.60;99.90;;;;;;5011629;28;20460;-77
2021/11/27 11:22:07;;;;;;;18.40;10.60;;;3.50;99.90;;;;;;5015927;28;20518;-77
2021/11/27 11:24:33;;;;;;;19.83;12.40;;;3.50;99.90;;;;;;5009920;28;20444;-76
2021/11/27 11:27:00;;;;;;;17.07;11.63;;;3.50;99.90;;;;;;5018081;28;20997;-76
2021/11/27 11:30:01;;;;;;;17.73;12.23;;;3.50;99.90;;;;;;5015027;28;20447;-76
2021/11/27 11:32:28;;;;;;;23.03;13.17;;;3.50;99.90;;;;;;5004679;28;20432;-76
2021/11/27 11:34:55;;;;;;;16.80;12.17;;;3.60;99.90;;;;;;5016122;28;20439;-76
2021/11/27 11:37:22;;;;;;;18.23;11.37;;;3.60;99.90;;;;;;5023465;28;20412;-76
2021/11/27 11:39:48;;;;;;;19.70;13.37;;;3.50;99.90;;;;;;5014672;28;20461;-76
2021/11/27 11:42:15;;;;;;;12.53;9.93;;;3.50;99.90;;;;;;5004299;28;20430;-76
2021/11/27 11:44:41;;;;;;;15.30;10.80;;;3.40;99.90;;;;;;5002737;28;20447;-76
2021/11/27 11:47:09;;;;;;;15.20;11.20;;;3.40;99.90;;;;;;5018821;28;20534;-76
2021/11/27 11:49:40;;;;;;;11.97;9.50;;;3.30;99.90;;;;;;4986457;28;20442;-76
2021/11/27 11:52:11;;;;;;;8.57;7.43;;;3.10;99.90;;;;;;5032986;28;20446;-76
2021/11/27 11:54:37;;;;;;;10.20;7.60;;;3.10;99.90;;;;;;5014492;28;20447;-76
2021/11/27 11:57:08;;;;;;;12.60;9.00;;;3.10;99.90;;;;;;5011892;28;20489;-76
2021/11/27 11:59:39;;;;;;;13.20;9.00;;;3.10;99.90;;;;;;5016163;28;20482;-76
2021/11/27 12:02:27;;;;;;;13.80;9.77;;;3.00;99.90;;;;;;5015334;28;20745;-76
2021/11/27 12:05:05;;;;;;;14.57;10.20;;;2.80;99.90;;;;;;5010919;28;20427;-75
2021/11/27 12:07:43;;;;;;;10.73;8.30;;;2.70;99.90;;;;;;5010755;28;20420;-76
2021/11/27 12:10:16;;;;;;;10.30;8.67;;;2.70;99.90;;;;;;5005170;28;20435;-76
2021/11/27 12:12:43;;;;;;;10.97;7.80;;;2.60;99.90;;;;;;5007119;28;20803;-76
2021/11/27 12:15:13;;;;;;;9.63;7.97;;;2.60;99.90;;;;;;5014087;28;20434;-76
2021/11/27 12:18:03;;;;;;;11.20;8.80;;;2.60;99.90;;;;;;5001630;28;20495;-76
2021/11/27 12:20:54;;;;;;;11.17;8.10;;;2.50;99.90;;;;;;5011000;28;20462;-76
2021/11/27 12:23:31;;;;;;;13.23;8.50;;;2.40;99.90;;;;;;4999772;28;20437;-76
2021/11/27 12:26:09;;;;;;;10.20;7.50;;;2.40;99.90;;;;;;5010952;28;20505;-76
2021/11/27 12:28:43;;;;;;;10.77;7.03;;;2.40;99.90;;;;;;5010122;28;20468;-76
2021/11/27 12:31:24;;;;;;;10.63;9.00;;;2.40;99.90;;;;;;5004929;28;20833;-76
2021/11/27 12:33:59;;;;;;;9.70;7.60;;;2.40;99.90;;;;;;5013078;28;20440;-76
2021/11/27 12:36:25;;;;;;;11.57;8.60;;;2.40;99.90;;;;;;5008979;28;20747;-75
2021/11/27 12:38:55;;;;;;;10.83;9.00;;;2.30;99.90;;;;;;4997170;28;20467;-76
2021/11/27 12:41:25;;;;;;;12.00;8.17;;;2.30;99.90;;;;;;5007431;28;20274;-76
2021/11/27 12:44:29;;;;;;;8.80;7.37;;;2.20;99.90;;;;;;5010134;28;20447;-75
2021/11/27 12:47:00;;;;;;;11.97;8.63;;;2.20;99.90;;;;;;5001717;28;20422;-76
2021/11/27 12:49:32;;;;;;;13.33;8.60;;;2.10;99.90;;;;;;5005511;28;20972;-75